sensor_id;sensor_type;location;lat;lon;timestamp;P1;durP1;ratioP1;P2;durP2;ratioP2
44228;SDS011;29904;51.058;5.378;2023-04-15T00:00:31;4.03;;;1.90;;
44228;SDS011;29904;51.058;5.378;2023-04-15T00:02:58;3.60;;;2.22;;
44228;SDS011;29904;51.058;5.378;2023-04-15T00:05:28;5.47;;;2.10;;
44228;SDS011;29904;51.058;5.378;2023-04-15T00:07:55;4.60;;;2.20;;
44228;SDS011;29904;51.058;5.378;2023-04-15T00:10:20;4.23;;;2.27;;
44228;SDS011;29904;51.058;5.378;2023-04-15T00:12:46;5.18;;;2.20;;
44228;SDS011;29904;51.058;5.378;2023-04-15T00:15:12;4.55;;;2.00;;
44228;SDS011;29904;51.058;5.378;2023-04-15T00:17:37;4.05;;;2.20;;
44228;SDS011;29904;51.058;5.378;2023-04-15T00:20:04;3.63;;;1.90;;
44228;SDS011;29904;51.058;5.378;2023-04-15T00:22:30;5.47;;;2.10;;
44228;SDS011;29904;51.058;5.378;2023-04-15T00:24:56;4.35;;;2.10;;
44228;SDS011;29904;51.058;5.378;2023-04-15T00:27:22;4.85;;;2.00;;
44228;SDS011;29904;51.058;5.378;2023-04-15T00:29:48;3.90;;;1.90;;
44228;SDS011;29904;51.058;5.378;2023-04-15T00:32:14;5.53;;;2.20;;
44228;SDS011;29904;51.058;5.378;2023-04-15T00:34:40;4.72;;;2.08;;
44228;SDS011;29904;51.058;5.378;2023-04-15T00:37:06;4.15;;;2.00;;
44228;SDS011;29904;51.058;5.378;2023-04-15T00:39:33;5.82;;;2.35;;
44228;SDS011;29904;51.058;5.378;2023-04-15T00:41:59;4.32;;;2.20;;
44228;SDS011;29904;51.058;5.378;2023-04-15T00:44:26;3.92;;;2.10;;
44228;SDS011;29904;51.058;5.378;2023-04-15T00:46:52;5.28;;;2.30;;
44228;SDS011;29904;51.058;5.378;2023-04-15T00:49:18;3.78;;;2.00;;
44228;SDS011;29904;51.058;5.378;2023-04-15T00:51:44;4.83;;;2.03;;
44228;SDS011;29904;51.058;5.378;2023-04-15T00:54:10;5.72;;;2.17;;
44228;SDS011;29904;51.058;5.378;2023-04-15T00:56:37;5.28;;;2.20;;
44228;SDS011;29904;51.058;5.378;2023-04-15T00:59:04;5.05;;;1.90;;
44228;SDS011;29904;51.058;5.378;2023-04-15T01:01:32;4.65;;;1.80;;
44228;SDS011;29904;51.058;5.378;2023-04-15T01:03:59;3.15;;;1.83;;
44228;SDS011;29904;51.058;5.378;2023-04-15T01:06:25;4.50;;;2.20;;
44228;SDS011;29904;51.058;5.378;2023-04-15T01:08:52;5.68;;;2.65;;
44228;SDS011;29904;51.058;5.378;2023-04-15T01:11:18;4.93;;;2.90;;
44228;SDS011;29904;51.058;5.378;2023-04-15T01:13:45;6.13;;;2.60;;
44228;SDS011;29904;51.058;5.378;2023-04-15T01:16:11;5.87;;;2.23;;
44228;SDS011;29904;51.058;5.378;2023-04-15T01:18:38;5.33;;;2.23;;
44228;SDS011;29904;51.058;5.378;2023-04-15T01:21:04;4.72;;;2.13;;
44228;SDS011;29904;51.058;5.378;2023-04-15T01:23:31;5.90;;;2.22;;
44228;SDS011;29904;51.058;5.378;2023-04-15T01:25:58;5.53;;;2.35;;
44228;SDS011;29904;51.058;5.378;2023-04-15T01:28:24;4.83;;;2.10;;
44228;SDS011;29904;51.058;5.378;2023-04-15T01:30:50;5.93;;;2.10;;
44228;SDS011;29904;51.058;5.378;2023-04-15T01:33:39;5.50;;;2.00;;
44228;SDS011;29904;51.058;5.378;2023-04-15T01:36:06;6.35;;;2.13;;
44228;SDS011;29904;51.058;5.378;2023-04-15T01:38:33;3.67;;;2.00;;
44228;SDS011;29904;51.058;5.378;2023-04-15T01:41:00;5.15;;;2.42;;
44228;SDS011;29904;51.058;5.378;2023-04-15T01:43:28;5.85;;;2.45;;
44228;SDS011;29904;51.058;5.378;2023-04-15T01:45:54;5.20;;;2.50;;
44228;SDS011;29904;51.058;5.378;2023-04-15T01:48:20;4.45;;;2.50;;
44228;SDS011;29904;51.058;5.378;2023-04-15T01:50:46;4.85;;;2.55;;
44228;SDS011;29904;51.058;5.378;2023-04-15T01:53:12;7.03;;;2.88;;
44228;SDS011;29904;51.058;5.378;2023-04-15T01:55:38;5.80;;;2.70;;
44228;SDS011;29904;51.058;5.378;2023-04-15T01:58:04;3.70;;;2.40;;
44228;SDS011;29904;51.058;5.378;2023-04-15T02:00:30;5.90;;;2.47;;
44228;SDS011;29904;51.058;5.378;2023-04-15T02:02:56;5.32;;;2.70;;
44228;SDS011;29904;51.058;5.378;2023-04-15T02:05:23;5.13;;;2.60;;
44228;SDS011;29904;51.058;5.378;2023-04-15T02:07:49;5.53;;;2.60;;
44228;SDS011;29904;51.058;5.378;2023-04-15T02:10:15;4.97;;;2.95;;
44228;SDS011;29904;51.058;5.378;2023-04-15T02:12:41;5.53;;;2.95;;
44228;SDS011;29904;51.058;5.378;2023-04-15T02:15:07;6.53;;;2.65;;
44228;SDS011;29904;51.058;5.378;2023-04-15T02:17:34;7.53;;;3.10;;
44228;SDS011;29904;51.058;5.378;2023-04-15T02:20:01;8.48;;;2.90;;
44228;SDS011;29904;51.058;5.378;2023-04-15T02:22:30;6.60;;;2.92;;
44228;SDS011;29904;51.058;5.378;2023-04-15T02:24:55;7.78;;;3.03;;
44228;SDS011;29904;51.058;5.378;2023-04-15T02:27:21;7.05;;;2.70;;
44228;SDS011;29904;51.058;5.378;2023-04-15T02:29:47;7.22;;;2.90;;
44228;SDS011;29904;51.058;5.378;2023-04-15T02:32:15;6.13;;;2.90;;
44228;SDS011;29904;51.058;5.378;2023-04-15T02:34:41;6.45;;;2.80;;
44228;SDS011;29904;51.058;5.378;2023-04-15T02:37:10;7.75;;;2.95;;
44228;SDS011;29904;51.058;5.378;2023-04-15T02:39:37;6.40;;;2.88;;
44228;SDS011;29904;51.058;5.378;2023-04-15T02:42:03;6.25;;;3.10;;
44228;SDS011;29904;51.058;5.378;2023-04-15T02:44:30;6.60;;;2.95;;
44228;SDS011;29904;51.058;5.378;2023-04-15T02:46:57;4.75;;;2.75;;
44228;SDS011;29904;51.058;5.378;2023-04-15T02:49:23;5.73;;;3.03;;
44228;SDS011;29904;51.058;5.378;2023-04-15T02:51:49;5.15;;;2.95;;
44228;SDS011;29904;51.058;5.378;2023-04-15T02:54:16;7.28;;;3.20;;
44228;SDS011;29904;51.058;5.378;2023-04-15T02:56:42;11.02;;;3.30;;
44228;SDS011;29904;51.058;5.378;2023-04-15T02:59:08;6.00;;;2.90;;
44228;SDS011;29904;51.058;5.378;2023-04-15T03:01:34;6.85;;;3.13;;
44228;SDS011;29904;51.058;5.378;2023-04-15T03:04:00;7.13;;;2.70;;
44228;SDS011;29904;51.058;5.378;2023-04-15T03:06:25;7.35;;;3.28;;
44228;SDS011;29904;51.058;5.378;2023-04-15T03:08:51;7.35;;;3.20;;
44228;SDS011;29904;51.058;5.378;2023-04-15T03:11:18;7.18;;;3.42;;
44228;SDS011;29904;51.058;5.378;2023-04-15T03:13:44;6.30;;;3.50;;
44228;SDS011;29904;51.058;5.378;2023-04-15T03:16:10;6.85;;;3.08;;
44228;SDS011;29904;51.058;5.378;2023-04-15T03:18:35;9.18;;;3.00;;
44228;SDS011;29904;51.058;5.378;2023-04-15T03:21:01;6.20;;;2.90;;
44228;SDS011;29904;51.058;5.378;2023-04-15T03:23:27;6.80;;;3.30;;
44228;SDS011;29904;51.058;5.378;2023-04-15T03:25:55;6.57;;;3.25;;
44228;SDS011;29904;51.058;5.378;2023-04-15T03:28:22;9.57;;;3.70;;
44228;SDS011;29904;51.058;5.378;2023-04-15T03:30:47;6.47;;;3.63;;
44228;SDS011;29904;51.058;5.378;2023-04-15T03:33:13;7.40;;;3.00;;
44228;SDS011;29904;51.058;5.378;2023-04-15T03:35:39;6.93;;;3.17;;
44228;SDS011;29904;51.058;5.378;2023-04-15T03:38:05;7.47;;;3.33;;
44228;SDS011;29904;51.058;5.378;2023-04-15T03:40:31;8.65;;;3.70;;
44228;SDS011;29904;51.058;5.378;2023-04-15T03:42:56;7.18;;;3.38;;
44228;SDS011;29904;51.058;5.378;2023-04-15T03:45:22;6.97;;;3.10;;
44228;SDS011;29904;51.058;5.378;2023-04-15T03:47:48;7.65;;;3.30;;
44228;SDS011;29904;51.058;5.378;2023-04-15T03:50:13;7.47;;;3.30;;
44228;SDS011;29904;51.058;5.378;2023-04-15T03:52:39;7.63;;;3.90;;
44228;SDS011;29904;51.058;5.378;2023-04-15T03:55:05;7.77;;;3.20;;
44228;SDS011;29904;51.058;5.378;2023-04-15T03:57:32;8.05;;;3.20;;
44228;SDS011;29904;51.058;5.378;2023-04-15T04:00:02;6.68;;;3.28;;
44228;SDS011;29904;51.058;5.378;2023-04-15T04:02:31;7.43;;;3.30;;
44228;SDS011;29904;51.058;5.378;2023-04-15T04:04:57;6.50;;;3.20;;
44228;SDS011;29904;51.058;5.378;2023-04-15T04:07:23;7.93;;;3.07;;
44228;SDS011;29904;51.058;5.378;2023-04-15T04:09:49;5.72;;;3.05;;
44228;SDS011;29904;51.058;5.378;2023-04-15T04:12:15;6.55;;;3.40;;
44228;SDS011;29904;51.058;5.378;2023-04-15T04:14:41;6.53;;;3.20;;
44228;SDS011;29904;51.058;5.378;2023-04-15T04:17:07;6.73;;;3.30;;
44228;SDS011;29904;51.058;5.378;2023-04-15T04:19:32;6.40;;;3.28;;
44228;SDS011;29904;51.058;5.378;2023-04-15T04:21:58;6.70;;;3.43;;
44228;SDS011;29904;51.058;5.378;2023-04-15T04:24:24;7.88;;;3.33;;
44228;SDS011;29904;51.058;5.378;2023-04-15T04:26:50;6.93;;;3.57;;
44228;SDS011;29904;51.058;5.378;2023-04-15T04:29:16;6.07;;;3.17;;
44228;SDS011;29904;51.058;5.378;2023-04-15T04:31:41;8.30;;;3.70;;
44228;SDS011;29904;51.058;5.378;2023-04-15T04:34:07;7.70;;;3.63;;
44228;SDS011;29904;51.058;5.378;2023-04-15T04:36:33;8.15;;;4.00;;
44228;SDS011;29904;51.058;5.378;2023-04-15T04:38:59;6.60;;;3.35;;
44228;SDS011;29904;51.058;5.378;2023-04-15T04:41:25;9.15;;;3.40;;
44228;SDS011;29904;51.058;5.378;2023-04-15T04:43:51;6.72;;;3.55;;
44228;SDS011;29904;51.058;5.378;2023-04-15T04:46:16;6.90;;;3.40;;
44228;SDS011;29904;51.058;5.378;2023-04-15T04:48:42;6.57;;;3.35;;
44228;SDS011;29904;51.058;5.378;2023-04-15T04:51:08;6.47;;;3.60;;
44228;SDS011;29904;51.058;5.378;2023-04-15T04:53:35;8.02;;;3.88;;
44228;SDS011;29904;51.058;5.378;2023-04-15T04:56:01;7.73;;;4.00;;
44228;SDS011;29904;51.058;5.378;2023-04-15T04:58:27;5.63;;;3.42;;
44228;SDS011;29904;51.058;5.378;2023-04-15T05:00:53;5.88;;;3.47;;
44228;SDS011;29904;51.058;5.378;2023-04-15T05:03:20;7.28;;;4.10;;
44228;SDS011;29904;51.058;5.378;2023-04-15T05:05:46;7.63;;;4.07;;
44228;SDS011;29904;51.058;5.378;2023-04-15T05:08:13;7.05;;;4.15;;
44228;SDS011;29904;51.058;5.378;2023-04-15T05:10:39;8.25;;;4.20;;
44228;SDS011;29904;51.058;5.378;2023-04-15T05:13:05;7.45;;;4.47;;
44228;SDS011;29904;51.058;5.378;2023-04-15T05:15:31;6.88;;;4.32;;
44228;SDS011;29904;51.058;5.378;2023-04-15T05:17:57;9.05;;;4.50;;
44228;SDS011;29904;51.058;5.378;2023-04-15T05:20:23;6.83;;;4.30;;
44228;SDS011;29904;51.058;5.378;2023-04-15T05:22:48;7.87;;;4.40;;
44228;SDS011;29904;51.058;5.378;2023-04-15T05:25:14;6.07;;;4.60;;
44228;SDS011;29904;51.058;5.378;2023-04-15T05:27:41;9.73;;;4.85;;
44228;SDS011;29904;51.058;5.378;2023-04-15T05:30:07;8.10;;;4.80;;
44228;SDS011;29904;51.058;5.378;2023-04-15T05:32:33;8.20;;;4.30;;
44228;SDS011;29904;51.058;5.378;2023-04-15T05:34:58;8.53;;;5.00;;
44228;SDS011;29904;51.058;5.378;2023-04-15T05:37:24;8.40;;;4.70;;
44228;SDS011;29904;51.058;5.378;2023-04-15T05:39:50;8.10;;;4.80;;
44228;SDS011;29904;51.058;5.378;2023-04-15T05:42:16;7.97;;;4.63;;
44228;SDS011;29904;51.058;5.378;2023-04-15T05:44:41;7.97;;;4.63;;
44228;SDS011;29904;51.058;5.378;2023-04-15T05:47:07;11.50;;;5.17;;
44228;SDS011;29904;51.058;5.378;2023-04-15T05:49:34;8.27;;;4.88;;
44228;SDS011;29904;51.058;5.378;2023-04-15T05:52:00;9.13;;;5.43;;
44228;SDS011;29904;51.058;5.378;2023-04-15T05:54:26;9.50;;;5.65;;
44228;SDS011;29904;51.058;5.378;2023-04-15T05:56:52;8.60;;;5.30;;
44228;SDS011;29904;51.058;5.378;2023-04-15T05:59:18;10.48;;;5.15;;
44228;SDS011;29904;51.058;5.378;2023-04-15T06:01:44;9.43;;;5.72;;
44228;SDS011;29904;51.058;5.378;2023-04-15T06:04:10;9.13;;;5.53;;
44228;SDS011;29904;51.058;5.378;2023-04-15T06:06:36;8.90;;;5.00;;
44228;SDS011;29904;51.058;5.378;2023-04-15T06:09:02;8.82;;;5.70;;
44228;SDS011;29904;51.058;5.378;2023-04-15T06:11:28;8.07;;;5.72;;
44228;SDS011;29904;51.058;5.378;2023-04-15T06:13:54;12.80;;;6.03;;
44228;SDS011;29904;51.058;5.378;2023-04-15T06:16:20;10.32;;;6.40;;
44228;SDS011;29904;51.058;5.378;2023-04-15T06:18:47;9.70;;;6.40;;
44228;SDS011;29904;51.058;5.378;2023-04-15T06:21:13;9.80;;;6.20;;
44228;SDS011;29904;51.058;5.378;2023-04-15T06:23:39;9.05;;;6.90;;
44228;SDS011;29904;51.058;5.378;2023-04-15T06:26:06;10.65;;;7.20;;
44228;SDS011;29904;51.058;5.378;2023-04-15T06:28:31;13.27;;;6.88;;
44228;SDS011;29904;51.058;5.378;2023-04-15T06:30:57;11.85;;;7.18;;
44228;SDS011;29904;51.058;5.378;2023-04-15T06:33:23;11.20;;;7.32;;
44228;SDS011;29904;51.058;5.378;2023-04-15T06:35:49;10.07;;;7.03;;
44228;SDS011;29904;51.058;5.378;2023-04-15T06:38:15;12.02;;;7.05;;
44228;SDS011;29904;51.058;5.378;2023-04-15T06:40:41;12.60;;;7.30;;
44228;SDS011;29904;51.058;5.378;2023-04-15T06:43:06;11.10;;;6.90;;
44228;SDS011;29904;51.058;5.378;2023-04-15T06:45:33;12.02;;;6.82;;
44228;SDS011;29904;51.058;5.378;2023-04-15T06:47:59;11.70;;;7.25;;
44228;SDS011;29904;51.058;5.378;2023-04-15T06:50:25;10.05;;;6.75;;
44228;SDS011;29904;51.058;5.378;2023-04-15T06:52:52;10.05;;;7.07;;
44228;SDS011;29904;51.058;5.378;2023-04-15T06:55:18;11.90;;;7.25;;
44228;SDS011;29904;51.058;5.378;2023-04-15T06:57:44;10.45;;;6.80;;
44228;SDS011;29904;51.058;5.378;2023-04-15T07:00:10;10.77;;;7.10;;
44228;SDS011;29904;51.058;5.378;2023-04-15T07:02:36;11.75;;;7.07;;
44228;SDS011;29904;51.058;5.378;2023-04-15T07:05:03;11.73;;;6.70;;
44228;SDS011;29904;51.058;5.378;2023-04-15T07:07:30;10.00;;;6.93;;
44228;SDS011;29904;51.058;5.378;2023-04-15T07:09:56;11.70;;;7.20;;
44228;SDS011;29904;51.058;5.378;2023-04-15T07:12:23;11.02;;;6.95;;
44228;SDS011;29904;51.058;5.378;2023-04-15T07:14:48;9.68;;;6.43;;
44228;SDS011;29904;51.058;5.378;2023-04-15T07:17:14;10.52;;;7.35;;
44228;SDS011;29904;51.058;5.378;2023-04-15T07:19:40;12.80;;;7.18;;
44228;SDS011;29904;51.058;5.378;2023-04-15T07:22:06;11.10;;;6.97;;
44228;SDS011;29904;51.058;5.378;2023-04-15T07:24:32;10.88;;;7.25;;
44228;SDS011;29904;51.058;5.378;2023-04-15T07:26:57;10.48;;;7.40;;
44228;SDS011;29904;51.058;5.378;2023-04-15T07:29:23;10.40;;;6.87;;
44228;SDS011;29904;51.058;5.378;2023-04-15T07:31:51;10.98;;;7.28;;
44228;SDS011;29904;51.058;5.378;2023-04-15T07:34:17;12.68;;;7.90;;
44228;SDS011;29904;51.058;5.378;2023-04-15T07:36:45;16.90;;;8.10;;
44228;SDS011;29904;51.058;5.378;2023-04-15T07:39:15;11.25;;;7.57;;
44228;SDS011;29904;51.058;5.378;2023-04-15T07:41:43;13.18;;;7.95;;
44228;SDS011;29904;51.058;5.378;2023-04-15T07:44:10;11.80;;;7.30;;
44228;SDS011;29904;51.058;5.378;2023-04-15T07:46:35;13.40;;;7.97;;
44228;SDS011;29904;51.058;5.378;2023-04-15T07:49:02;12.90;;;8.40;;
44228;SDS011;29904;51.058;5.378;2023-04-15T07:51:29;13.25;;;8.60;;
44228;SDS011;29904;51.058;5.378;2023-04-15T07:53:56;14.95;;;8.13;;
44228;SDS011;29904;51.058;5.378;2023-04-15T07:56:23;10.02;;;7.82;;
44228;SDS011;29904;51.058;5.378;2023-04-15T07:58:50;16.20;;;8.57;;
44228;SDS011;29904;51.058;5.378;2023-04-15T08:01:17;10.63;;;7.50;;
44228;SDS011;29904;51.058;5.378;2023-04-15T08:03:44;10.63;;;7.78;;
44228;SDS011;29904;51.058;5.378;2023-04-15T08:06:10;9.88;;;7.63;;
44228;SDS011;29904;51.058;5.378;2023-04-15T08:08:37;11.37;;;7.10;;
44228;SDS011;29904;51.058;5.378;2023-04-15T08:11:04;11.13;;;7.28;;
44228;SDS011;29904;51.058;5.378;2023-04-15T08:13:30;15.07;;;7.43;;
44228;SDS011;29904;51.058;5.378;2023-04-15T08:18:42;13.10;;;7.35;;
44228;SDS011;29904;51.058;5.378;2023-04-15T08:21:09;12.77;;;7.17;;
44228;SDS011;29904;51.058;5.378;2023-04-15T08:23:35;12.93;;;6.93;;
44228;SDS011;29904;51.058;5.378;2023-04-15T08:26:04;10.25;;;6.40;;
44228;SDS011;29904;51.058;5.378;2023-04-15T08:28:31;7.97;;;5.83;;
44228;SDS011;29904;51.058;5.378;2023-04-15T08:30:58;10.00;;;6.50;;
44228;SDS011;29904;51.058;5.378;2023-04-15T08:33:25;7.43;;;5.80;;
44228;SDS011;29904;51.058;5.378;2023-04-15T08:35:53;8.30;;;5.70;;
44228;SDS011;29904;51.058;5.378;2023-04-15T08:38:19;8.88;;;6.20;;
44228;SDS011;29904;51.058;5.378;2023-04-15T08:40:45;7.32;;;5.72;;
44228;SDS011;29904;51.058;5.378;2023-04-15T08:43:17;8.98;;;5.78;;
44228;SDS011;29904;51.058;5.378;2023-04-15T08:45:49;8.38;;;5.50;;
44228;SDS011;29904;51.058;5.378;2023-04-15T08:48:16;9.23;;;6.00;;
44228;SDS011;29904;51.058;5.378;2023-04-15T08:50:43;6.90;;;5.47;;
44228;SDS011;29904;51.058;5.378;2023-04-15T08:53:10;9.63;;;6.50;;
44228;SDS011;29904;51.058;5.378;2023-04-15T08:55:39;7.90;;;6.10;;
44228;SDS011;29904;51.058;5.378;2023-04-15T08:58:12;8.32;;;6.00;;
44228;SDS011;29904;51.058;5.378;2023-04-15T09:00:41;8.07;;;5.82;;
44228;SDS011;29904;51.058;5.378;2023-04-15T09:03:07;7.38;;;5.63;;
44228;SDS011;29904;51.058;5.378;2023-04-15T09:05:34;9.98;;;6.07;;
44228;SDS011;29904;51.058;5.378;2023-04-15T09:08:02;8.05;;;6.07;;
44228;SDS011;29904;51.058;5.378;2023-04-15T09:10:30;7.50;;;5.68;;
44228;SDS011;29904;51.058;5.378;2023-04-15T09:12:57;8.75;;;5.60;;
44228;SDS011;29904;51.058;5.378;2023-04-15T09:15:26;6.53;;;4.88;;
44228;SDS011;29904;51.058;5.378;2023-04-15T09:17:53;6.90;;;4.80;;
44228;SDS011;29904;51.058;5.378;2023-04-15T09:20:20;6.45;;;4.95;;
44228;SDS011;29904;51.058;5.378;2023-04-15T09:22:47;8.07;;;5.00;;
44228;SDS011;29904;51.058;5.378;2023-04-15T09:27:49;5.90;;;4.50;;
44228;SDS011;29904;51.058;5.378;2023-04-15T09:30:16;6.68;;;4.60;;
44228;SDS011;29904;51.058;5.378;2023-04-15T09:32:52;7.40;;;4.83;;
44228;SDS011;29904;51.058;5.378;2023-04-15T09:35:19;6.63;;;4.57;;
44228;SDS011;29904;51.058;5.378;2023-04-15T09:37:46;7.00;;;4.43;;
44228;SDS011;29904;51.058;5.378;2023-04-15T09:40:12;5.13;;;3.10;;
44228;SDS011;29904;51.058;5.378;2023-04-15T09:42:54;5.53;;;3.50;;
44228;SDS011;29904;51.058;5.378;2023-04-15T09:45:20;6.18;;;3.10;;
44228;SDS011;29904;51.058;5.378;2023-04-15T09:47:47;4.68;;;3.08;;
44228;SDS011;29904;51.058;5.378;2023-04-15T09:50:12;4.83;;;3.20;;
44228;SDS011;29904;51.058;5.378;2023-04-15T09:52:42;4.72;;;3.00;;
44228;SDS011;29904;51.058;5.378;2023-04-15T09:55:09;4.93;;;3.10;;
44228;SDS011;29904;51.058;5.378;2023-04-15T09:57:36;4.57;;;3.25;;
44228;SDS011;29904;51.058;5.378;2023-04-15T10:00:03;4.40;;;2.75;;
44228;SDS011;29904;51.058;5.378;2023-04-15T10:02:32;4.78;;;2.47;;
44228;SDS011;29904;51.058;5.378;2023-04-15T10:05:01;3.35;;;1.90;;
44228;SDS011;29904;51.058;5.378;2023-04-15T10:07:27;6.50;;;2.72;;
44228;SDS011;29904;51.058;5.378;2023-04-15T10:09:53;3.85;;;2.20;;
44228;SDS011;29904;51.058;5.378;2023-04-15T10:12:20;4.82;;;1.98;;
44228;SDS011;29904;51.058;5.378;2023-04-15T10:14:47;3.10;;;1.90;;
44228;SDS011;29904;51.058;5.378;2023-04-15T10:17:19;3.33;;;1.95;;
44228;SDS011;29904;51.058;5.378;2023-04-15T10:19:47;3.43;;;1.70;;
44228;SDS011;29904;51.058;5.378;2023-04-15T10:22:14;4.85;;;2.10;;
44228;SDS011;29904;51.058;5.378;2023-04-15T10:24:40;4.63;;;2.10;;
44228;SDS011;29904;51.058;5.378;2023-04-15T10:27:07;3.37;;;2.03;;
44228;SDS011;29904;51.058;5.378;2023-04-15T10:29:33;4.03;;;2.30;;
44228;SDS011;29904;51.058;5.378;2023-04-15T10:31:59;4.20;;;2.03;;
44228;SDS011;29904;51.058;5.378;2023-04-15T10:34:26;3.80;;;2.10;;
44228;SDS011;29904;51.058;5.378;2023-04-15T10:36:54;2.88;;;2.05;;
44228;SDS011;29904;51.058;5.378;2023-04-15T10:44:32;4.70;;;2.10;;
44228;SDS011;29904;51.058;5.378;2023-04-15T10:46:58;4.27;;;2.67;;
44228;SDS011;29904;51.058;5.378;2023-04-15T10:49:24;4.63;;;2.80;;
44228;SDS011;29904;51.058;5.378;2023-04-15T10:51:51;5.45;;;2.55;;
44228;SDS011;29904;51.058;5.378;2023-04-15T10:56:50;4.33;;;2.40;;
44228;SDS011;29904;51.058;5.378;2023-04-15T10:59:31;3.67;;;2.50;;
44228;SDS011;29904;51.058;5.378;2023-04-15T11:02:37;5.05;;;2.70;;
44228;SDS011;29904;51.058;5.378;2023-04-15T11:05:13;3.70;;;2.50;;
44228;SDS011;29904;51.058;5.378;2023-04-15T11:07:47;4.13;;;2.50;;
44228;SDS011;29904;51.058;5.378;2023-04-15T11:12:54;3.80;;;2.25;;
44228;SDS011;29904;51.058;5.378;2023-04-15T11:15:29;2.63;;;1.70;;
44228;SDS011;29904;51.058;5.378;2023-04-15T11:18:08;2.70;;;1.80;;
44228;SDS011;29904;51.058;5.378;2023-04-15T11:20:39;3.60;;;1.30;;
44228;SDS011;29904;51.058;5.378;2023-04-15T11:23:07;2.55;;;1.00;;
44228;SDS011;29904;51.058;5.378;2023-04-15T11:25:33;2.13;;;1.00;;
44228;SDS011;29904;51.058;5.378;2023-04-15T11:28:02;1.50;;;0.93;;
44228;SDS011;29904;51.058;5.378;2023-04-15T11:30:29;1.30;;;0.88;;
44228;SDS011;29904;51.058;5.378;2023-04-15T11:32:58;2.20;;;1.30;;
44228;SDS011;29904;51.058;5.378;2023-04-15T11:35:25;2.67;;;1.52;;
44228;SDS011;29904;51.058;5.378;2023-04-15T11:37:51;2.87;;;1.57;;
44228;SDS011;29904;51.058;5.378;2023-04-15T11:40:28;2.50;;;1.67;;
44228;SDS011;29904;51.058;5.378;2023-04-15T11:45:47;2.60;;;1.15;;
44228;SDS011;29904;51.058;5.378;2023-04-15T11:48:24;1.10;;;0.90;;
44228;SDS011;29904;51.058;5.378;2023-04-15T11:50:58;3.10;;;0.88;;
44228;SDS011;29904;51.058;5.378;2023-04-15T11:53:35;2.13;;;1.20;;
44228;SDS011;29904;51.058;5.378;2023-04-15T11:56:19;2.38;;;1.58;;
44228;SDS011;29904;51.058;5.378;2023-04-15T11:58:52;3.40;;;2.20;;
44228;SDS011;29904;51.058;5.378;2023-04-15T12:01:29;2.72;;;1.98;;
44228;SDS011;29904;51.058;5.378;2023-04-15T12:03:59;3.85;;;1.98;;
44228;SDS011;29904;51.058;5.378;2023-04-15T12:06:30;4.18;;;2.17;;
44228;SDS011;29904;51.058;5.378;2023-04-15T12:11:37;2.20;;;1.48;;
44228;SDS011;29904;51.058;5.378;2023-04-15T12:16:53;1.65;;;0.80;;
44228;SDS011;29904;51.058;5.378;2023-04-15T12:21:48;1.20;;;0.90;;
44228;SDS011;29904;51.058;5.378;2023-04-15T12:24:14;1.90;;;1.00;;
44228;SDS011;29904;51.058;5.378;2023-04-15T12:26:47;1.97;;;1.00;;
44228;SDS011;29904;51.058;5.378;2023-04-15T12:29:15;1.10;;;0.90;;
44228;SDS011;29904;51.058;5.378;2023-04-15T12:34:18;2.38;;;1.30;;
44228;SDS011;29904;51.058;5.378;2023-04-15T12:36:52;2.08;;;1.00;;
44228;SDS011;29904;51.058;5.378;2023-04-15T12:39:20;2.87;;;1.10;;
44228;SDS011;29904;51.058;5.378;2023-04-15T12:41:50;6.25;;;1.92;;
44228;SDS011;29904;51.058;5.378;2023-04-15T12:44:16;2.58;;;1.20;;
44228;SDS011;29904;51.058;5.378;2023-04-15T12:46:42;2.45;;;1.35;;
44228;SDS011;29904;51.058;5.378;2023-04-15T12:49:08;2.50;;;1.10;;
44228;SDS011;29904;51.058;5.378;2023-04-15T12:51:34;2.23;;;1.20;;
44228;SDS011;29904;51.058;5.378;2023-04-15T12:54:00;2.17;;;1.30;;
44228;SDS011;29904;51.058;5.378;2023-04-15T12:56:25;1.70;;;1.10;;
44228;SDS011;29904;51.058;5.378;2023-04-15T12:58:51;2.77;;;1.30;;
44228;SDS011;29904;51.058;5.378;2023-04-15T13:01:17;1.92;;;1.38;;
44228;SDS011;29904;51.058;5.378;2023-04-15T13:03:43;2.67;;;1.40;;
44228;SDS011;29904;51.058;5.378;2023-04-15T13:06:09;2.90;;;1.20;;
44228;SDS011;29904;51.058;5.378;2023-04-15T13:08:35;2.23;;;1.60;;
44228;SDS011;29904;51.058;5.378;2023-04-15T13:11:01;2.73;;;1.30;;
44228;SDS011;29904;51.058;5.378;2023-04-15T13:13:28;1.80;;;1.23;;
44228;SDS011;29904;51.058;5.378;2023-04-15T13:15:55;1.70;;;1.30;;
44228;SDS011;29904;51.058;5.378;2023-04-15T13:18:22;3.47;;;1.30;;
44228;SDS011;29904;51.058;5.378;2023-04-15T13:20:48;2.05;;;1.17;;
44228;SDS011;29904;51.058;5.378;2023-04-15T13:23:14;2.00;;;1.30;;
44228;SDS011;29904;51.058;5.378;2023-04-15T13:25:40;1.30;;;1.13;;
44228;SDS011;29904;51.058;5.378;2023-04-15T13:28:06;1.33;;;1.00;;
44228;SDS011;29904;51.058;5.378;2023-04-15T13:30:32;2.10;;;1.20;;
44228;SDS011;29904;51.058;5.378;2023-04-15T13:32:57;2.10;;;1.50;;
44228;SDS011;29904;51.058;5.378;2023-04-15T13:35:23;2.03;;;1.20;;
44228;SDS011;29904;51.058;5.378;2023-04-15T13:37:49;1.90;;;1.10;;
44228;SDS011;29904;51.058;5.378;2023-04-15T13:40:15;1.90;;;1.10;;
44228;SDS011;29904;51.058;5.378;2023-04-15T13:42:41;3.90;;;1.33;;
44228;SDS011;29904;51.058;5.378;2023-04-15T13:45:07;2.85;;;1.10;;
44228;SDS011;29904;51.058;5.378;2023-04-15T13:47:33;3.20;;;1.10;;
44228;SDS011;29904;51.058;5.378;2023-04-15T13:49:59;2.57;;;1.30;;
44228;SDS011;29904;51.058;5.378;2023-04-15T13:52:25;3.25;;;1.50;;
44228;SDS011;29904;51.058;5.378;2023-04-15T13:54:51;3.25;;;1.30;;
44228;SDS011;29904;51.058;5.378;2023-04-15T13:57:16;2.25;;;1.23;;
44228;SDS011;29904;51.058;5.378;2023-04-15T13:59:42;2.10;;;1.20;;
44228;SDS011;29904;51.058;5.378;2023-04-15T14:02:08;1.93;;;1.10;;
44228;SDS011;29904;51.058;5.378;2023-04-15T14:04:34;4.13;;;1.20;;
44228;SDS011;29904;51.058;5.378;2023-04-15T14:07:00;1.45;;;0.90;;
44228;SDS011;29904;51.058;5.378;2023-04-15T14:09:26;2.40;;;0.98;;
44228;SDS011;29904;51.058;5.378;2023-04-15T14:11:51;1.70;;;0.90;;
44228;SDS011;29904;51.058;5.378;2023-04-15T14:14:17;2.80;;;1.00;;
44228;SDS011;29904;51.058;5.378;2023-04-15T14:16:43;1.77;;;0.90;;
44228;SDS011;29904;51.058;5.378;2023-04-15T14:19:09;3.30;;;0.90;;
44228;SDS011;29904;51.058;5.378;2023-04-15T14:21:34;1.92;;;0.90;;
44228;SDS011;29904;51.058;5.378;2023-04-15T14:24:00;1.33;;;0.87;;
44228;SDS011;29904;51.058;5.378;2023-04-15T14:26:26;1.67;;;0.80;;
44228;SDS011;29904;51.058;5.378;2023-04-15T14:28:51;2.10;;;1.00;;
44228;SDS011;29904;51.058;5.378;2023-04-15T14:31:18;1.60;;;0.93;;
44228;SDS011;29904;51.058;5.378;2023-04-15T14:33:44;2.65;;;1.00;;
44228;SDS011;29904;51.058;5.378;2023-04-15T14:36:10;1.70;;;0.73;;
44228;SDS011;29904;51.058;5.378;2023-04-15T14:38:36;1.48;;;1.00;;
44228;SDS011;29904;51.058;5.378;2023-04-15T14:41:05;1.42;;;0.85;;
44228;SDS011;29904;51.058;5.378;2023-04-15T14:43:32;1.45;;;0.70;;
44228;SDS011;29904;51.058;5.378;2023-04-15T14:45:58;1.50;;;0.80;;
44228;SDS011;29904;51.058;5.378;2023-04-15T14:48:24;1.90;;;1.10;;
44228;SDS011;29904;51.058;5.378;2023-04-15T14:50:50;2.45;;;1.05;;
44228;SDS011;29904;51.058;5.378;2023-04-15T14:53:16;2.13;;;1.10;;
44228;SDS011;29904;51.058;5.378;2023-04-15T14:55:41;1.52;;;0.85;;
44228;SDS011;29904;51.058;5.378;2023-04-15T14:58:08;1.58;;;1.00;;
44228;SDS011;29904;51.058;5.378;2023-04-15T15:00:34;1.50;;;0.90;;
44228;SDS011;29904;51.058;5.378;2023-04-15T15:03:00;1.77;;;0.90;;
44228;SDS011;29904;51.058;5.378;2023-04-15T15:05:25;1.35;;;0.80;;
44228;SDS011;29904;51.058;5.378;2023-04-15T15:07:51;1.63;;;1.00;;
44228;SDS011;29904;51.058;5.378;2023-04-15T15:10:17;2.50;;;0.70;;
44228;SDS011;29904;51.058;5.378;2023-04-15T15:12:43;1.60;;;0.60;;